sensor_id;sensor_type;location;lat;lon;timestamp;temperature;humidity
3942;DHT22;1985;48.592;8.850;2023-12-04T00:01:14;-4.40;99.90
3942;DHT22;1985;48.592;8.850;2023-12-04T00:03:39;-4.30;99.90
3942;DHT22;1985;48.592;8.850;2023-12-04T00:06:06;-4.20;99.90
3942;DHT22;1985;48.592;8.850;2023-12-04T00:08:32;-4.20;99.90
3942;DHT22;1985;48.592;8.850;2023-12-04T00:10:58;-4.10;99.90
3942;DHT22;1985;48.592;8.850;2023-12-04T00:13:24;-4.10;99.90
3942;DHT22;1985;48.592;8.850;2023-12-04T00:15:49;-4.20;99.90
3942;DHT22;1985;48.592;8.850;2023-12-04T00:18:15;-4.30;99.90
3942;DHT22;1985;48.592;8.850;2023-12-04T00:20:41;-4.40;99.90
3942;DHT22;1985;48.592;8.850;2023-12-04T00:23:06;-4.40;99.90
3942;DHT22;1985;48.592;8.850;2023-12-04T00:25:32;-4.40;99.90
3942;DHT22;1985;48.592;8.850;2023-12-04T00:27:57;-4.60;99.90
3942;DHT22;1985;48.592;8.850;2023-12-04T00:30:23;-4.80;99.90
3942;DHT22;1985;48.592;8.850;2023-12-04T00:32:49;-5.00;99.90
3942;DHT22;1985;48.592;8.850;2023-12-04T00:35:14;-5.10;99.90
3942;DHT22;1985;48.592;8.850;2023-12-04T00:37:40;-5.30;99.90
3942;DHT22;1985;48.592;8.850;2023-12-04T00:40:06;-5.30;99.90
3942;DHT22;1985;48.592;8.850;2023-12-04T00:42:33;-5.30;99.90
3942;DHT22;1985;48.592;8.850;2023-12-04T00:44:59;-5.20;99.90
3942;DHT22;1985;48.592;8.850;2023-12-04T00:47:25;-5.10;99.90
3942;DHT22;1985;48.592;8.850;2023-12-04T00:49:50;-5.00;99.90
3942;DHT22;1985;48.592;8.850;2023-12-04T00:52:16;-5.10;99.90
3942;DHT22;1985;48.592;8.850;2023-12-04T00:54:41;-5.20;99.90
3942;DHT22;1985;48.592;8.850;2023-12-04T00:57:08;-5.30;99.90
3942;DHT22;1985;48.592;8.850;2023-12-04T00:59:33;-5.30;99.90
3942;DHT22;1985;48.592;8.850;2023-12-04T01:01:59;-5.20;99.90
3942;DHT22;1985;48.592;8.850;2023-12-04T01:04:25;-5.10;99.90
3942;DHT22;1985;48.592;8.850;2023-12-04T01:06:51;-4.90;99.90
3942;DHT22;1985;48.592;8.850;2023-12-04T01:09:17;-4.80;99.90
3942;DHT22;1985;48.592;8.850;2023-12-04T01:11:43;-4.70;99.90
3942;DHT22;1985;48.592;8.850;2023-12-04T01:14:09;-4.60;99.90
3942;DHT22;1985;48.592;8.850;2023-12-04T01:16:34;-4.50;99.90
3942;DHT22;1985;48.592;8.850;2023-12-04T01:19:00;-4.40;99.90
3942;DHT22;1985;48.592;8.850;2023-12-04T01:21:26;-4.30;99.90
3942;DHT22;1985;48.592;8.850;2023-12-04T01:23:51;-4.20;99.90
3942;DHT22;1985;48.592;8.850;2023-12-04T01:26:17;-4.20;99.90
3942;DHT22;1985;48.592;8.850;2023-12-04T01:28:42;-4.20;99.90
3942;DHT22;1985;48.592;8.850;2023-12-04T01:31:08;-4.20;99.90
3942;DHT22;1985;48.592;8.850;2023-12-04T01:33:34;-4.20;99.90
3942;DHT22;1985;48.592;8.850;2023-12-04T01:36:01;-4.20;99.90
3942;DHT22;1985;48.592;8.850;2023-12-04T01:38:27;-4.20;99.90
3942;DHT22;1985;48.592;8.850;2023-12-04T01:40:52;-4.20;99.90
3942;DHT22;1985;48.592;8.850;2023-12-04T01:43:18;-4.20;99.90
3942;DHT22;1985;48.592;8.850;2023-12-04T01:45:44;-4.30;99.90
3942;DHT22;1985;48.592;8.850;2023-12-04T01:48:11;-4.40;99.90
3942;DHT22;1985;48.592;8.850;2023-12-04T01:50:39;-4.30;99.90
3942;DHT22;1985;48.592;8.850;2023-12-04T01:53:05;-4.30;99.90
3942;DHT22;1985;48.592;8.850;2023-12-04T01:55:32;-4.20;99.90
3942;DHT22;1985;48.592;8.850;2023-12-04T01:57:58;-4.20;99.90
3942;DHT22;1985;48.592;8.850;2023-12-04T02:00:25;-4.10;99.90
3942;DHT22;1985;48.592;8.850;2023-12-04T02:02:51;-4.10;99.90
3942;DHT22;1985;48.592;8.850;2023-12-04T02:05:16;-4.00;99.90
3942;DHT22;1985;48.592;8.850;2023-12-04T02:07:42;-4.00;99.90
3942;DHT22;1985;48.592;8.850;2023-12-04T02:10:08;-4.10;99.90
3942;DHT22;1985;48.592;8.850;2023-12-04T02:12:34;-4.50;99.90
3942;DHT22;1985;48.592;8.850;2023-12-04T02:15:00;-4.70;99.90
3942;DHT22;1985;48.592;8.850;2023-12-04T02:17:26;-4.60;99.90
3942;DHT22;1985;48.592;8.850;2023-12-04T02:19:54;-4.60;99.90
3942;DHT22;1985;48.592;8.850;2023-12-04T02:22:19;-4.60;99.90
3942;DHT22;1985;48.592;8.850;2023-12-04T02:24:46;-4.50;99.90
3942;DHT22;1985;48.592;8.850;2023-12-04T02:27:14;-4.40;99.90
3942;DHT22;1985;48.592;8.850;2023-12-04T02:29:47;-4.40;99.90
3942;DHT22;1985;48.592;8.850;2023-12-04T02:32:17;-4.40;99.90
3942;DHT22;1985;48.592;8.850;2023-12-04T02:34:45;-4.40;99.90
3942;DHT22;1985;48.592;8.850;2023-12-04T02:37:14;-4.70;99.90
3942;DHT22;1985;48.592;8.850;2023-12-04T02:39:40;-4.80;99.90
3942;DHT22;1985;48.592;8.850;2023-12-04T02:42:06;-5.10;99.90
3942;DHT22;1985;48.592;8.850;2023-12-04T02:44:32;-5.30;99.90
3942;DHT22;1985;48.592;8.850;2023-12-04T02:46:58;-5.40;99.90
3942;DHT22;1985;48.592;8.850;2023-12-04T02:49:24;-5.30;99.90
3942;DHT22;1985;48.592;8.850;2023-12-04T02:51:50;-5.30;99.90
3942;DHT22;1985;48.592;8.850;2023-12-04T02:54:15;-5.20;99.90
3942;DHT22;1985;48.592;8.850;2023-12-04T02:56:41;-5.10;99.90
3942;DHT22;1985;48.592;8.850;2023-12-04T02:59:06;-4.90;99.90
3942;DHT22;1985;48.592;8.850;2023-12-04T03:01:32;-4.80;99.90
3942;DHT22;1985;48.592;8.850;2023-12-04T03:03:58;-4.80;99.90
3942;DHT22;1985;48.592;8.850;2023-12-04T03:06:23;-4.70;99.90
3942;DHT22;1985;48.592;8.850;2023-12-04T03:08:49;-4.60;99.90
3942;DHT22;1985;48.592;8.850;2023-12-04T03:11:15;-4.50;99.90
3942;DHT22;1985;48.592;8.850;2023-12-04T03:13:40;-4.40;99.90
3942;DHT22;1985;48.592;8.850;2023-12-04T03:16:13;-4.30;99.90
3942;DHT22;1985;48.592;8.850;2023-12-04T03:18:39;-4.30;99.90
3942;DHT22;1985;48.592;8.850;2023-12-04T03:21:06;-4.20;99.90
3942;DHT22;1985;48.592;8.850;2023-12-04T03:23:32;-4.00;99.90
3942;DHT22;1985;48.592;8.850;2023-12-04T03:25:57;-4.00;99.90
3942;DHT22;1985;48.592;8.850;2023-12-04T03:28:23;-3.90;99.90
3942;DHT22;1985;48.592;8.850;2023-12-04T03:30:49;-3.90;99.90
3942;DHT22;1985;48.592;8.850;2023-12-04T03:33:14;-3.90;99.90
3942;DHT22;1985;48.592;8.850;2023-12-04T03:35:40;-4.20;99.90
3942;DHT22;1985;48.592;8.850;2023-12-04T03:38:05;-4.20;99.90
3942;DHT22;1985;48.592;8.850;2023-12-04T03:40:31;-4.20;99.90
3942;DHT22;1985;48.592;8.850;2023-12-04T03:42:57;-4.20;99.90
3942;DHT22;1985;48.592;8.850;2023-12-04T03:45:23;-4.10;99.90
3942;DHT22;1985;48.592;8.850;2023-12-04T03:47:48;-4.10;99.90
3942;DHT22;1985;48.592;8.850;2023-12-04T03:50:14;-4.00;99.90
3942;DHT22;1985;48.592;8.850;2023-12-04T03:52:40;-4.00;99.90
3942;DHT22;1985;48.592;8.850;2023-12-04T03:55:08;-4.00;99.90
3942;DHT22;1985;48.592;8.850;2023-12-04T03:57:33;-3.90;99.90
3942;DHT22;1985;48.592;8.850;2023-12-04T03:59:59;-3.80;99.90
3942;DHT22;1985;48.592;8.850;2023-12-04T04:02:25;-3.90;99.90
3942;DHT22;1985;48.592;8.850;2023-12-04T04:04:50;-3.90;99.90
3942;DHT22;1985;48.592;8.850;2023-12-04T04:07:17;-3.90;99.90
3942;DHT22;1985;48.592;8.850;2023-12-04T04:09:43;-3.80;99.90
3942;DHT22;1985;48.592;8.850;2023-12-04T04:12:09;-3.70;99.90
3942;DHT22;1985;48.592;8.850;2023-12-04T04:14:34;-3.70;99.90
3942;DHT22;1985;48.592;8.850;2023-12-04T04:17:00;-3.70;99.90
3942;DHT22;1985;48.592;8.850;2023-12-04T04:19:26;-3.60;99.90
3942;DHT22;1985;48.592;8.850;2023-12-04T04:21:51;-3.60;99.90
3942;DHT22;1985;48.592;8.850;2023-12-04T04:24:17;-3.50;99.90
3942;DHT22;1985;48.592;8.850;2023-12-04T04:26:43;-3.40;99.90
3942;DHT22;1985;48.592;8.850;2023-12-04T04:29:08;-3.50;99.90
3942;DHT22;1985;48.592;8.850;2023-12-04T04:31:35;-3.60;99.90
3942;DHT22;1985;48.592;8.850;2023-12-04T04:34:01;-3.60;99.90
3942;DHT22;1985;48.592;8.850;2023-12-04T04:36:26;-3.50;99.90
3942;DHT22;1985;48.592;8.850;2023-12-04T04:38:52;-3.50;99.90
3942;DHT22;1985;48.592;8.850;2023-12-04T04:41:17;-3.40;99.90
3942;DHT22;1985;48.592;8.850;2023-12-04T04:43:43;-3.40;99.90
3942;DHT22;1985;48.592;8.850;2023-12-04T04:46:09;-3.30;99.90
3942;DHT22;1985;48.592;8.850;2023-12-04T04:48:35;-3.30;99.90
3942;DHT22;1985;48.592;8.850;2023-12-04T04:51:00;-3.20;99.90
3942;DHT22;1985;48.592;8.850;2023-12-04T04:53:26;-3.20;99.90
3942;DHT22;1985;48.592;8.850;2023-12-04T04:55:51;-3.20;99.90
3942;DHT22;1985;48.592;8.850;2023-12-04T04:58:17;-3.20;99.90
3942;DHT22;1985;48.592;8.850;2023-12-04T05:00:43;-3.50;99.90
3942;DHT22;1985;48.592;8.850;2023-12-04T05:03:09;-3.90;99.90
3942;DHT22;1985;48.592;8.850;2023-12-04T05:05:35;-4.00;99.90
3942;DHT22;1985;48.592;8.850;2023-12-04T05:08:00;-4.30;99.90
3942;DHT22;1985;48.592;8.850;2023-12-04T05:10:26;-4.30;99.90
3942;DHT22;1985;48.592;8.850;2023-12-04T05:12:52;-4.20;99.90
3942;DHT22;1985;48.592;8.850;2023-12-04T05:15:17;-4.10;99.90
3942;DHT22;1985;48.592;8.850;2023-12-04T05:17:45;-4.00;99.90
3942;DHT22;1985;48.592;8.850;2023-12-04T05:20:11;-4.00;99.90
3942;DHT22;1985;48.592;8.850;2023-12-04T05:22:37;-3.90;99.90
3942;DHT22;1985;48.592;8.850;2023-12-04T05:25:02;-3.90;99.90
3942;DHT22;1985;48.592;8.850;2023-12-04T05:27:28;-3.80;99.90
3942;DHT22;1985;48.592;8.850;2023-12-04T05:29:54;-3.80;99.90
3942;DHT22;1985;48.592;8.850;2023-12-04T05:32:21;-3.80;99.90
3942;DHT22;1985;48.592;8.850;2023-12-04T05:34:47;-3.80;99.90
3942;DHT22;1985;48.592;8.850;2023-12-04T05:37:12;-3.90;99.90
3942;DHT22;1985;48.592;8.850;2023-12-04T05:39:38;-3.90;99.90
3942;DHT22;1985;48.592;8.850;2023-12-04T05:42:04;-3.90;99.90
3942;DHT22;1985;48.592;8.850;2023-12-04T05:44:31;-3.90;99.90
3942;DHT22;1985;48.592;8.850;2023-12-04T05:46:57;-3.90;99.90
3942;DHT22;1985;48.592;8.850;2023-12-04T05:49:23;-4.00;99.90
3942;DHT22;1985;48.592;8.850;2023-12-04T05:51:48;-4.10;99.90
3942;DHT22;1985;48.592;8.850;2023-12-04T05:54:14;-4.20;99.90
3942;DHT22;1985;48.592;8.850;2023-12-04T05:56:39;-4.30;99.90
3942;DHT22;1985;48.592;8.850;2023-12-04T05:59:05;-4.30;99.90
3942;DHT22;1985;48.592;8.850;2023-12-04T06:01:31;-4.30;99.90
3942;DHT22;1985;48.592;8.850;2023-12-04T06:03:56;-4.20;99.90
3942;DHT22;1985;48.592;8.850;2023-12-04T06:06:22;-4.30;99.90
3942;DHT22;1985;48.592;8.850;2023-12-04T06:08:47;-4.40;99.90
3942;DHT22;1985;48.592;8.850;2023-12-04T06:11:13;-4.20;99.90
3942;DHT22;1985;48.592;8.850;2023-12-04T06:13:39;-4.10;99.90
3942;DHT22;1985;48.592;8.850;2023-12-04T06:16:05;-4.00;99.90
3942;DHT22;1985;48.592;8.850;2023-12-04T06:18:31;-3.90;99.90
3942;DHT22;1985;48.592;8.850;2023-12-04T06:20:56;-3.90;99.90
3942;DHT22;1985;48.592;8.850;2023-12-04T06:23:22;-3.90;99.90
3942;DHT22;1985;48.592;8.850;2023-12-04T06:25:48;-3.90;99.90
3942;DHT22;1985;48.592;8.850;2023-12-04T06:28:14;-3.80;99.90
3942;DHT22;1985;48.592;8.850;2023-12-04T06:30:40;-3.80;99.90
3942;DHT22;1985;48.592;8.850;2023-12-04T06:33:07;-3.80;99.90
3942;DHT22;1985;48.592;8.850;2023-12-04T06:35:33;-3.80;99.90
3942;DHT22;1985;48.592;8.850;2023-12-04T06:38:05;-3.80;99.90
3942;DHT22;1985;48.592;8.850;2023-12-04T06:40:31;-3.70;99.90
3942;DHT22;1985;48.592;8.850;2023-12-04T06:42:57;-3.70;99.90
3942;DHT22;1985;48.592;8.850;2023-12-04T06:45:24;-3.70;99.90
3942;DHT22;1985;48.592;8.850;2023-12-04T06:47:50;-3.80;99.90
3942;DHT22;1985;48.592;8.850;2023-12-04T06:50:16;-4.00;99.90
3942;DHT22;1985;48.592;8.850;2023-12-04T06:52:42;-4.10;99.90
3942;DHT22;1985;48.592;8.850;2023-12-04T06:55:08;-4.10;99.90
3942;DHT22;1985;48.592;8.850;2023-12-04T06:57:34;-4.30;99.90
3942;DHT22;1985;48.592;8.850;2023-12-04T07:00:00;-4.30;99.90
3942;DHT22;1985;48.592;8.850;2023-12-04T07:02:25;-4.50;99.90
3942;DHT22;1985;48.592;8.850;2023-12-04T07:04:51;-4.40;99.90
3942;DHT22;1985;48.592;8.850;2023-12-04T07:07:17;-4.50;99.90
3942;DHT22;1985;48.592;8.850;2023-12-04T07:09:42;-4.40;99.90
3942;DHT22;1985;48.592;8.850;2023-12-04T07:12:08;-4.30;99.90
3942;DHT22;1985;48.592;8.850;2023-12-04T07:14:34;-4.20;99.90
3942;DHT22;1985;48.592;8.850;2023-12-04T07:16:59;-4.20;99.90
3942;DHT22;1985;48.592;8.850;2023-12-04T07:19:26;-4.10;99.90
3942;DHT22;1985;48.592;8.850;2023-12-04T07:21:52;-4.00;99.90
3942;DHT22;1985;48.592;8.850;2023-12-04T07:24:18;-4.00;99.90
3942;DHT22;1985;48.592;8.850;2023-12-04T07:26:43;-4.00;99.90
3942;DHT22;1985;48.592;8.850;2023-12-04T07:29:09;-3.90;99.90
3942;DHT22;1985;48.592;8.850;2023-12-04T07:31:35;-4.00;99.90
3942;DHT22;1985;48.592;8.850;2023-12-04T07:34:01;-4.10;99.90
3942;DHT22;1985;48.592;8.850;2023-12-04T07:36:30;-4.10;99.90
3942;DHT22;1985;48.592;8.850;2023-12-04T07:38:56;-4.20;99.90
3942;DHT22;1985;48.592;8.850;2023-12-04T07:41:21;-4.10;99.90
3942;DHT22;1985;48.592;8.850;2023-12-04T07:43:47;-3.90;99.90
3942;DHT22;1985;48.592;8.850;2023-12-04T07:46:13;-3.70;99.90
3942;DHT22;1985;48.592;8.850;2023-12-04T07:48:39;-3.70;99.90
3942;DHT22;1985;48.592;8.850;2023-12-04T07:51:06;-3.70;99.90
3942;DHT22;1985;48.592;8.850;2023-12-04T07:53:32;-3.60;99.90
3942;DHT22;1985;48.592;8.850;2023-12-04T07:56:01;-3.70;99.90
3942;DHT22;1985;48.592;8.850;2023-12-04T07:58:28;-3.60;99.90
3942;DHT22;1985;48.592;8.850;2023-12-04T08:00:54;-3.40;99.90
3942;DHT22;1985;48.592;8.850;2023-12-04T08:03:20;-3.30;99.90
3942;DHT22;1985;48.592;8.850;2023-12-04T08:05:45;-3.10;99.90
3942;DHT22;1985;48.592;8.850;2023-12-04T08:08:11;-2.90;99.90
3942;DHT22;1985;48.592;8.850;2023-12-04T08:10:37;-2.90;99.90
3942;DHT22;1985;48.592;8.850;2023-12-04T08:13:02;-2.90;99.90
3942;DHT22;1985;48.592;8.850;2023-12-04T08:15:28;-3.00;99.90
3942;DHT22;1985;48.592;8.850;2023-12-04T08:17:55;-2.90;99.90
3942;DHT22;1985;48.592;8.850;2023-12-04T08:20:21;-3.00;99.90
3942;DHT22;1985;48.592;8.850;2023-12-04T08:22:48;-3.00;99.90
3942;DHT22;1985;48.592;8.850;2023-12-04T08:25:13;-3.40;99.90
3942;DHT22;1985;48.592;8.850;2023-12-04T08:27:39;-3.40;99.90
3942;DHT22;1985;48.592;8.850;2023-12-04T08:30:05;-3.40;99.90
3942;DHT22;1985;48.592;8.850;2023-12-04T08:32:31;-3.60;99.90
3942;DHT22;1985;48.592;8.850;2023-12-04T08:34:57;-3.50;99.90
3942;DHT22;1985;48.592;8.850;2023-12-04T08:37:23;-3.50;99.90
3942;DHT22;1985;48.592;8.850;2023-12-04T08:39:48;-3.50;99.90
3942;DHT22;1985;48.592;8.850;2023-12-04T08:42:14;-3.40;99.90
3942;DHT22;1985;48.592;8.850;2023-12-04T08:44:40;-3.50;99.90
3942;DHT22;1985;48.592;8.850;2023-12-04T08:47:06;-3.40;99.90
3942;DHT22;1985;48.592;8.850;2023-12-04T08:49:32;-3.20;99.90
3942;DHT22;1985;48.592;8.850;2023-12-04T08:51:58;-3.00;99.90
3942;DHT22;1985;48.592;8.850;2023-12-04T08:54:24;-2.90;99.90
3942;DHT22;1985;48.592;8.850;2023-12-04T08:56:50;-3.00;99.90
3942;DHT22;1985;48.592;8.850;2023-12-04T08:59:16;-3.00;99.90
3942;DHT22;1985;48.592;8.850;2023-12-04T09:01:42;-2.70;99.90
3942;DHT22;1985;48.592;8.850;2023-12-04T09:04:09;-2.50;99.90
3942;DHT22;1985;48.592;8.850;2023-12-04T09:06:35;-2.40;99.90
3942;DHT22;1985;48.592;8.850;2023-12-04T09:09:01;-2.20;99.90
3942;DHT22;1985;48.592;8.850;2023-12-04T09:11:27;-2.30;99.90
3942;DHT22;1985;48.592;8.850;2023-12-04T09:13:53;-2.10;99.90
3942;DHT22;1985;48.592;8.850;2023-12-04T09:16:19;-1.90;99.90
3942;DHT22;1985;48.592;8.850;2023-12-04T09:18:45;-1.60;99.90
3942;DHT22;1985;48.592;8.850;2023-12-04T09:21:11;-1.50;99.90
3942;DHT22;1985;48.592;8.850;2023-12-04T09:23:37;-1.60;99.90
3942;DHT22;1985;48.592;8.850;2023-12-04T09:26:03;-1.40;99.90
3942;DHT22;1985;48.592;8.850;2023-12-04T09:28:29;-1.50;99.90
3942;DHT22;1985;48.592;8.850;2023-12-04T09:30:55;-1.30;99.90
3942;DHT22;1985;48.592;8.850;2023-12-04T09:33:20;-1.90;99.90
3942;DHT22;1985;48.592;8.850;2023-12-04T09:35:46;-1.80;99.90
3942;DHT22;1985;48.592;8.850;2023-12-04T09:38:12;-1.60;99.90
3942;DHT22;1985;48.592;8.850;2023-12-04T09:40:37;-1.60;99.90
3942;DHT22;1985;48.592;8.850;2023-12-04T09:43:04;-1.30;99.90
3942;DHT22;1985;48.592;8.850;2023-12-04T09:45:32;-1.40;99.90
3942;DHT22;1985;48.592;8.850;2023-12-04T09:47:58;-1.70;99.90
3942;DHT22;1985;48.592;8.850;2023-12-04T09:50:24;-1.40;99.90
3942;DHT22;1985;48.592;8.850;2023-12-04T09:52:51;-1.40;99.90
3942;DHT22;1985;48.592;8.850;2023-12-04T09:55:17;-1.30;99.90
3942;DHT22;1985;48.592;8.850;2023-12-04T09:57:44;-1.30;99.90
3942;DHT22;1985;48.592;8.850;2023-12-04T10:00:14;-1.40;99.90
3942;DHT22;1985;48.592;8.850;2023-12-04T10:02:41;-1.50;99.90
3942;DHT22;1985;48.592;8.850;2023-12-04T10:05:08;-1.80;99.90
3942;DHT22;1985;48.592;8.850;2023-12-04T10:07:34;-2.00;99.90
3942;DHT22;1985;48.592;8.850;2023-12-04T10:10:02;-2.10;99.90
3942;DHT22;1985;48.592;8.850;2023-12-04T10:12:31;-1.70;99.90
3942;DHT22;1985;48.592;8.850;2023-12-04T10:15:09;-1.30;99.90
3942;DHT22;1985;48.592;8.850;2023-12-04T10:17:40;-0.90;99.90
3942;DHT22;1985;48.592;8.850;2023-12-04T10:20:14;-0.60;99.90
3942;DHT22;1985;48.592;8.850;2023-12-04T10:23:02;-0.50;99.90
3942;DHT22;1985;48.592;8.850;2023-12-04T10:25:29;-0.80;99.90
3942;DHT22;1985;48.592;8.850;2023-12-04T10:28:07;-1.00;99.90
3942;DHT22;1985;48.592;8.850;2023-12-04T10:30:33;-1.20;99.90
3942;DHT22;1985;48.592;8.850;2023-12-04T10:33:02;-1.10;99.90
3942;DHT22;1985;48.592;8.850;2023-12-04T10:35:29;-1.30;99.90
3942;DHT22;1985;48.592;8.850;2023-12-04T10:37:58;-1.00;99.90
3942;DHT22;1985;48.592;8.850;2023-12-04T10:40:29;-0.80;99.90
3942;DHT22;1985;48.592;8.850;2023-12-04T10:45:40;-0.60;99.90
3942;DHT22;1985;48.592;8.850;2023-12-04T10:48:07;-0.20;99.90
3942;DHT22;1985;48.592;8.850;2023-12-04T10:50:37;0.00;99.90
3942;DHT22;1985;48.592;8.850;2023-12-04T10:53:11;0.00;99.90
3942;DHT22;1985;48.592;8.850;2023-12-04T10:55:38;-0.10;99.90
3942;DHT22;1985;48.592;8.850;2023-12-04T10:58:09;-0.20;99.90
3942;DHT22;1985;48.592;8.850;2023-12-04T11:00:45;-0.70;99.90
3942;DHT22;1985;48.592;8.850;2023-12-04T11:03:18;-0.90;99.90
3942;DHT22;1985;48.592;8.850;2023-12-04T11:05:45;-0.60;99.90
3942;DHT22;1985;48.592;8.850;2023-12-04T11:08:16;-0.70;99.90
3942;DHT22;1985;48.592;8.850;2023-12-04T11:10:50;-0.70;99.90
3942;DHT22;1985;48.592;8.850;2023-12-04T11:13:37;-0.50;99.90
3942;DHT22;1985;48.592;8.850;2023-12-04T11:21:50;-0.20;99.90
3942;DHT22;1985;48.592;8.850;2023-12-04T11:24:17;-0.10;99.90
3942;DHT22;1985;48.592;8.850;2023-12-04T11:26:44;-0.30;99.90
3942;DHT22;1985;48.592;8.850;2023-12-04T11:29:12;-0.30;99.90
3942;DHT22;1985;48.592;8.850;2023-12-04T11:31:39;-0.30;99.90
3942;DHT22;1985;48.592;8.850;2023-12-04T11:34:07;-0.40;99.90
3942;DHT22;1985;48.592;8.850;2023-12-04T11:36:33;-0.50;99.90
3942;DHT22;1985;48.592;8.850;2023-12-04T11:39:00;-0.40;99.90
3942;DHT22;1985;48.592;8.850;2023-12-04T11:41:26;-0.30;99.90
3942;DHT22;1985;48.592;8.850;2023-12-04T11:43:52;-0.20;99.90
3942;DHT22;1985;48.592;8.850;2023-12-04T11:46:25;0.00;99.90
3942;DHT22;1985;48.592;8.850;2023-12-04T11:54:15;0.10;99.90
3942;DHT22;1985;48.592;8.850;2023-12-04T11:59:22;-0.10;99.90
3942;DHT22;1985;48.592;8.850;2023-12-04T12:01:50;0.00;99.90
3942;DHT22;1985;48.592;8.850;2023-12-04T12:04:17;0.20;99.90
3942;DHT22;1985;48.592;8.850;2023-12-04T12:06:44;0.50;99.90
3942;DHT22;1985;48.592;8.850;2023-12-04T12:09:10;0.80;99.90
3942;DHT22;1985;48.592;8.850;2023-12-04T12:11:37;0.90;99.90
3942;DHT22;1985;48.592;8.850;2023-12-04T12:14:02;0.50;99.90
3942;DHT22;1985;48.592;8.850;2023-12-04T12:16:31;0.60;99.90
3942;DHT22;1985;48.592;8.850;2023-12-04T12:18:57;0.70;99.90
3942;DHT22;1985;48.592;8.850;2023-12-04T12:21:23;0.70;99.90
3942;DHT22;1985;48.592;8.850;2023-12-04T12:23:49;0.60;99.90
3942;DHT22;1985;48.592;8.850;2023-12-04T12:26:14;0.50;99.90
3942;DHT22;1985;48.592;8.850;2023-12-04T12:28:40;0.40;99.90
3942;DHT22;1985;48.592;8.850;2023-12-04T12:31:06;0.30;99.90
3942;DHT22;1985;48.592;8.850;2023-12-04T12:33:31;0.40;99.90
3942;DHT22;1985;48.592;8.850;2023-12-04T12:35:58;0.50;99.90
3942;DHT22;1985;48.592;8.850;2023-12-04T12:38:25;0.70;99.90
3942;DHT22;1985;48.592;8.850;2023-12-04T12:40:51;0.70;99.90
3942;DHT22;1985;48.592;8.850;2023-12-04T12:43:16;0.70;99.90
3942;DHT22;1985;48.592;8.850;2023-12-04T12:45:47;0.90;99.90
3942;DHT22;1985;48.592;8.850;2023-12-04T12:48:16;1.00;99.90
3942;DHT22;1985;48.592;8.850;2023-12-04T12:50:48;1.10;99.90
3942;DHT22;1985;48.592;8.850;2023-12-04T12:53:15;1.00;99.90
3942;DHT22;1985;48.592;8.850;2023-12-04T12:55:41;0.50;99.90
3942;DHT22;1985;48.592;8.850;2023-12-04T12:58:12;0.20;99.90
3942;DHT22;1985;48.592;8.850;2023-12-04T13:00:46;0.30;99.90
3942;DHT22;1985;48.592;8.850;2023-12-04T13:03:16;0.20;99.90
3942;DHT22;1985;48.592;8.850;2023-12-04T13:05:42;0.10;99.90
3942;DHT22;1985;48.592;8.850;2023-12-04T13:08:09;0.10;99.90
3942;DHT22;1985;48.592;8.850;2023-12-04T13:10:37;0.00;99.90
3942;DHT22;1985;48.592;8.850;2023-12-04T13:13:02;0.00;99.90
3942;DHT22;1985;48.592;8.850;2023-12-04T13:15:28;0.20;99.90
3942;DHT22;1985;48.592;8.850;2023-12-04T13:17:54;0.20;99.90
3942;DHT22;1985;48.592;8.850;2023-12-04T13:20:20;0.00;99.90
3942;DHT22;1985;48.592;8.850;2023-12-04T13:22:45;0.00;99.90
3942;DHT22;1985;48.592;8.850;2023-12-04T13:25:11;0.10;99.90
3942;DHT22;1985;48.592;8.850;2023-12-04T13:27:37;0.10;99.90
3942;DHT22;1985;48.592;8.850;2023-12-04T13:30:07;0.10;99.90
3942;DHT22;1985;48.592;8.850;2023-12-04T13:32:36;0.00;99.90
3942;DHT22;1985;48.592;8.850;2023-12-04T13:35:03;0.10;99.90
3942;DHT22;1985;48.592;8.850;2023-12-04T13:37:30;0.30;99.90
3942;DHT22;1985;48.592;8.850;2023-12-04T13:39:56;0.20;99.90
3942;DHT22;1985;48.592;8.850;2023-12-04T13:42:32;0.00;99.90
3942;DHT22;1985;48.592;8.850;2023-12-04T13:45:16;0.00;99.90
3942;DHT22;1985;48.592;8.850;2023-12-04T13:47:42;0.00;99.90
3942;DHT22;1985;48.592;8.850;2023-12-04T13:50:09;0.00;99.90
3942;DHT22;1985;48.592;8.850;2023-12-04T13:52:35;0.00;99.90
3942;DHT22;1985;48.592;8.850;2023-12-04T13:55:01;-0.10;99.90
3942;DHT22;1985;48.592;8.850;2023-12-04T13:57:34;0.20;99.90
3942;DHT22;1985;48.592;8.850;2023-12-04T14:00:09;0.50;99.90
3942;DHT22;1985;48.592;8.850;2023-12-04T14:02:35;0.60;99.90
3942;DHT22;1985;48.592;8.850;2023-12-04T14:05:03;0.70;99.90
3942;DHT22;1985;48.592;8.850;2023-12-04T14:07:29;0.60;99.90
3942;DHT22;1985;48.592;8.850;2023-12-04T14:09:54;0.50;99.90
3942;DHT22;1985;48.592;8.850;2023-12-04T14:12:20;0.50;99.90
3942;DHT22;1985;48.592;8.850;2023-12-04T14:14:46;0.40;99.90
3942;DHT22;1985;48.592;8.850;2023-12-04T14:17:14;0.20;99.90
3942;DHT22;1985;48.592;8.850;2023-12-04T14:19:42;0.20;99.90
3942;DHT22;1985;48.592;8.850;2023-12-04T14:22:07;0.20;99.90
3942;DHT22;1985;48.592;8.850;2023-12-04T14:24:33;0.20;99.90
3942;DHT22;1985;48.592;8.850;2023-12-04T14:27:00;0.40;99.90
3942;DHT22;1985;48.592;8.850;2023-12-04T14:29:26;0.50;99.90
3942;DHT22;1985;48.592;8.850;2023-12-04T14:31:52;0.20;99.90
3942;DHT22;1985;48.592;8.850;2023-12-04T14:34:17;-0.10;99.90
3942;DHT22;1985;48.592;8.850;2023-12-04T14:36:44;-0.30;99.90
3942;DHT22;1985;48.592;8.850;2023-12-04T14:39:09;-0.30;99.90
3942;DHT22;1985;48.592;8.850;2023-12-04T14:41:37;-0.20;99.90
3942;DHT22;1985;48.592;8.850;2023-12-04T14:44:03;-0.20;99.90
3942;DHT22;1985;48.592;8.850;2023-12-04T14:46:29;-0.10;99.90
3942;DHT22;1985;48.592;8.850;2023-12-04T14:48:54;-0.10;99.90
3942;DHT22;1985;48.592;8.850;2023-12-04T14:51:20;-0.20;99.90
3942;DHT22;1985;48.592;8.850;2023-12-04T14:53:46;-0.20;99.90
3942;DHT22;1985;48.592;8.850;2023-12-04T14:56:41;-0.10;99.90
3942;DHT22;1985;48.592;8.850;2023-12-04T14:59:25;-0.20;99.90
3942;DHT22;1985;48.592;8.850;2023-12-04T15:02:03;-0.20;99.90
3942;DHT22;1985;48.592;8.850;2023-12-04T15:04:40;-0.20;99.90
3942;DHT22;1985;48.592;8.850;2023-12-04T15:07:35;-0.10;99.90
3942;DHT22;1985;48.592;8.850;2023-12-04T15:10:20;0.10;99.90
3942;DHT22;1985;48.592;8.850;2023-12-04T15:12:51;0.10;99.90
3942;DHT22;1985;48.592;8.850;2023-12-04T15:15:17;0.00;99.90
3942;DHT22;1985;48.592;8.850;2023-12-04T15:18:02;0.00;99.90
3942;DHT22;1985;48.592;8.850;2023-12-04T15:20:46;0.20;99.90
3942;DHT22;1985;48.592;8.850;2023-12-04T15:23:12;0.20;99.90
3942;DHT22;1985;48.592;8.850;2023-12-04T15:25:38;0.30;99.90
3942;DHT22;1985;48.592;8.850;2023-12-04T15:28:03;0.30;99.90
3942;DHT22;1985;48.592;8.850;2023-12-04T15:30:34;0.30;99.90
3942;DHT22;1985;48.592;8.850;2023-12-04T15:32:59;0.20;99.90
3942;DHT22;1985;48.592;8.850;2023-12-04T15:35:25;0.40;99.90
3942;DHT22;1985;48.592;8.850;2023-12-04T15:37:51;0.30;99.90
3942;DHT22;1985;48.592;8.850;2023-12-04T15:40:17;0.30;99.90
3942;DHT22;1985;48.592;8.850;2023-12-04T15:42:42;0.40;99.90
3942;DHT22;1985;48.592;8.850;2023-12-04T15:45:08;0.40;99.90
3942;DHT22;1985;48.592;8.850;2023-12-04T15:47:34;0.40;99.90
3942;DHT22;1985;48.592;8.850;2023-12-04T15:50:00;0.00;99.90
3942;DHT22;1985;48.592;8.850;2023-12-04T15:52:25;0.10;99.90
3942;DHT22;1985;48.592;8.850;2023-12-04T15:54:54;0.10;99.90
3942;DHT22;1985;48.592;8.850;2023-12-04T15:57:19;0.20;99.90
3942;DHT22;1985;48.592;8.850;2023-12-04T15:59:45;0.30;99.90
3942;DHT22;1985;48.592;8.850;2023-12-04T16:02:11;0.40;99.90
3942;DHT22;1985;48.592;8.850;2023-12-04T16:04:37;0.40;99.90
3942;DHT22;1985;48.592;8.850;2023-12-04T16:07:03;0.30;99.90
3942;DHT22;1985;48.592;8.850;2023-12-04T16:09:29;0.20;99.90
3942;DHT22;1985;48.592;8.850;2023-12-04T16:11:54;0.00;99.90
3942;DHT22;1985;48.592;8.850;2023-12-04T16:14:20;0.00;99.90
3942;DHT22;1985;48.592;8.850;2023-12-04T16:16:46;0.00;99.90
3942;DHT22;1985;48.592;8.850;2023-12-04T16:19:12;0.00;99.90